Latest Coastal Weather Observations for Burnie Port

IDT60701

Issued at 3:55 pm EDT Monday 24 November 2014 (issued every 10 minutes, with the page automatically refreshed every 10 minutes)

About coastal observations | Map of coastal stations | Coastal observations for TAS | Marine services | Other Formats
Station Details ID: 091344 Name: BURNIE NTC AWS Lat: -41.05 Lon: 145.91 Height: 0.0 m
Data from the previous 72 hours. | See also: Recent months for locations in Tasmania
Date/Time
EDT
Temp

°C
Wind Pressure Rain
since 9am
mm
Weather Cloud Vis
km
Sea
Height
m
Swell
Dir
 
Speed
knots
Gust
knots
hPa Trend Height
m
Period
s
Dir
24/03:30pm 13.1 E 8 9 1004.8 - - - - - - - - -
24/03:00pm 13.6 ESE 7 9 1005.2 - - - - - - - - -
24/02:30pm 13.8 ESE 9 11 1005.4 - - - - - - - - -
24/02:00pm 13.8 ESE 10 11 1005.9 - - - - - - - - -
24/01:30pm 13.9 E 8 9 1007.0 - - - - - - - - -
24/01:00pm 13.9 E 7 8 1007.3 - - - - - - - - -
24/12:30pm 13.7 E 7 9 1007.6 - - - - - - - - -
24/12:00pm 13.7 E 5 7 1007.9 - - - - - - - - -
24/11:30am 14.2 SSW 1 2 1008.8 - - - - - - - - -
24/11:00am 13.9 SE 3 3 1008.5 - - - - - - - - -
24/10:30am 13.4 SSE 8 10 1008.9 - - - - - - - - -
24/10:00am 13.9 SW 3 5 1010.3 - - - - - - - - -
24/09:30am 13.2 S 8 10 1009.5 - - - - - - - - -
24/09:00am 12.8 S 10 15 1009.3 - - - - - - - - -
24/08:30am 14.1 S 7 10 1010.6 - - - - - - - - -
24/08:00am 13.4 SSW 6 9 1010.0 - - - - - - - - -
24/07:30am 12.7 S 5 7 1010.1 - - - - - - - - -
24/07:00am 13.3 SSW 6 8 1010.3 - - - - - - - - -
24/06:30am 13.0 SSW 6 7 1010.1 - - - - - - - - -
24/06:00am 12.7 S 4 6 1009.4 - - - - - - - - -
24/05:30am 12.9 S 6 9 1010.0 - - - - - - - - -
24/05:00am 12.9 SSW 6 8 1010.5 - - - - - - - - -
24/04:30am 12.9 S 4 5 1010.7 - - - - - - - - -
24/04:00am 12.7 S 2 3 1011.4 - - - - - - - - -
24/03:30am 11.8 SSE 3 5 1011.1 - - - - - - - - -
24/03:00am 12.4 SW 3 4 1011.3 - - - - - - - - -
24/02:30am 12.1 SSW 4 4 1011.4 - - - - - - - - -
24/02:00am 12.8 SSW 4 5 1011.6 - - - - - - - - -
24/01:30am 12.7 SSW 5 5 1011.4 - - - - - - - - -
24/01:00am 13.5 S 3 3 1011.9 - - - - - - - - -
24/12:30am 14.4 NNE 1 1 1012.1 - - - - - - - - -
24/12:00am 14.4 SE 2 3 1012.1 - - - - - - - - -
 
Date/Time
EDT
Temp

°C
Wind Pressure Rain
since 9am
mm
Weather Cloud Vis
km
Sea
Height
m
Swell
Dir
 
Speed
knots
Gust
knots
hPa Trend Height
m
Period
s
Dir
23/11:30pm 15.5 SW 3 5 1012.1 - - - - - - - - -
23/11:00pm 15.9 SW 3 5 1012.3 - - - - - - - - -
23/10:30pm 16.2 SW 4 6 1012.2 - - - - - - - - -
23/10:00pm 16.7 WSW 5 9 1012.3 - - - - - - - - -
23/09:30pm 17.0 W 8 11 1012.3 - - - - - - - - -
23/09:00pm 17.3 W 8 12 1012.2 - - - - - - - - -
23/08:30pm 18.0 W 9 14 1012.0 - - - - - - - - -
23/08:00pm 19.0 W 7 12 1011.5 - - - - - - - - -
23/07:30pm 19.6 W 10 16 1011.2 - - - - - - - - -
23/07:00pm 20.3 WNW 11 18 1010.8 - - - - - - - - -
23/06:30pm 20.8 W 10 18 1010.2 - - - - - - - - -
23/06:00pm 17.8 NW 16 21 1009.9 - - - - - - - - -
23/05:30pm 16.1 NNW 21 26 1009.8 - - - - - - - - -
23/05:00pm 16.2 NNW 17 22 1009.2 - - - - - - - - -
23/04:30pm 20.9 NW 15 21 1009.0 - - - - - - - - -
23/04:00pm 19.8 NNW 13 19 1008.6 - - - - - - - - -
23/03:30pm 16.6 NNW 16 19 1008.4 - - - - - - - - -
23/03:00pm 16.1 NNW 18 23 1008.6 - - - - - - - - -
23/02:30pm 15.9 NNW 19 24 1008.8 - - - - - - - - -
23/02:00pm 15.7 NNW 20 24 1009.1 - - - - - - - - -
23/01:30pm 15.6 NNW 19 24 1009.3 - - - - - - - - -
23/01:00pm 15.4 NNW 20 24 1009.5 - - - - - - - - -
23/12:30pm 15.2 NNW 20 25 1009.8 - - - - - - - - -
23/12:00pm 15.3 NNW 17 21 1009.8 - - - - - - - - -
23/11:30am 15.4 NNW 13 15 1010.0 - - - - - - - - -
23/11:00am 16.0 NW 12 16 1010.1 - - - - - - - - -
23/10:30am 16.1 NW 11 14 1010.2 - - - - - - - - -
23/10:00am 17.1 W 7 14 1010.2 - - - - - - - - -
23/09:30am 16.2 WSW 7 14 1010.0 - - - - - - - - -
23/09:00am 15.7 W 11 18 1010.0 - - - - - - - - -
23/08:30am 14.9 WSW 4 11 1010.0 - - - - - - - - -
23/08:00am 14.3 W 7 14 1009.5 - - - - - - - - -
23/07:30am 13.9 W 7 13 1008.9 - - - - - - - - -
23/07:00am 13.1 W 4 9 1008.7 - - - - - - - - -
23/06:30am 12.8 W 5 7 1008.1 - - - - - - - - -
23/06:00am 12.9 W 6 8 1007.7 - - - - - - - - -
23/05:30am 13.4 W 6 9 1007.3 - - - - - - - - -
23/05:00am 13.7 WNW 4 6 1006.9 - - - - - - - - -
23/04:30am 14.0 W 4 8 1006.6 - - - - - - - - -
23/04:00am 14.2 W 7 11 1006.3 - - - - - - - - -
23/03:30am 14.9 W 7 11 1006.2 - - - - - - - - -
23/03:00am 15.0 WSW 8 14 1005.9 - - - - - - - - -
23/02:30am 15.4 WSW 10 14 1005.8 - - - - - - - - -
23/02:00am 15.6 WSW 11 19 1005.9 - - - - - - - - -
23/01:52am 15.8 WSW 16 19 1005.9 - - - - - - - - -
23/01:30am 15.5 W 5 9 1005.8 - - - - - - - - -
23/01:00am 15.4 ESE 2 4 1005.4 - - - - - - - - -
23/12:30am 15.5 SSW 2 4 1005.2 - - - - - - - - -
23/12:00am 15.7 SSW 5 8 1005.0 - - - - - - - - -
 
Date/Time
EDT
Temp

°C
Wind Pressure Rain
since 9am
mm
Weather Cloud Vis
km
Sea
Height
m
Swell
Dir
 
Speed
knots
Gust
knots
hPa Trend Height
m
Period
s
Dir
22/11:30pm 15.7 SSW 8 10 1005.2 - - - - - - - - -
22/11:00pm 15.2 S 9 13 1005.5 - - - - - - - - -
22/10:30pm 15.2 S 7 11 1006.0 - - - - - - - - -
22/10:00pm 14.8 E 10 12 1006.1 - - - - - - - - -
22/09:30pm 14.9 E 5 6 1005.9 - - - - - - - - -
22/09:00pm 15.1 SSE 6 10 1005.3 - - - - - - - - -
22/08:30pm 15.0 SE 7 9 1005.5 - - - - - - - - -
22/08:00pm 15.0 ESE 8 10 1005.5 - - - - - - - - -
22/07:30pm 14.7 ESE 9 12 1005.8 - - - - - - - - -
22/07:00pm 14.6 ESE 10 12 1005.7 - - - - - - - - -
22/06:30pm 14.6 E 10 12 1005.8 - - - - - - - - -
22/06:00pm 14.5 E 12 13 1006.0 - - - - - - - - -
22/05:30pm 14.4 E 11 13 1006.3 - - - - - - - - -
22/05:00pm 14.3 ESE 11 12 1006.5 - - - - - - - - -
22/04:30pm 14.4 ESE 11 12 1006.6 - - - - - - - - -
22/04:00pm 14.2 ESE 10 12 1007.0 - - - - - - - - -
22/03:30pm 14.2 ESE 10 11 1007.2 - - - - - - - - -
22/03:00pm 14.2 ESE 8 9 1008.1 - - - - - - - - -
22/02:30pm 14.3 ESE 8 9 1008.6 - - - - - - - - -
22/02:00pm 14.2 ESE 9 10 1008.5 - - - - - - - - -
22/01:30pm 14.0 ESE 10 11 1008.9 - - - - - - - - -
22/01:00pm 13.7 E 8 10 1009.8 - - - - - - - - -
22/12:30pm 13.5 ESE 9 11 1009.9 - - - - - - - - -
22/12:00pm 13.3 ESE 10 12 1009.5 - - - - - - - - -
22/11:30am 13.1 E 12 14 1009.6 - - - - - - - - -
22/11:00am 13.0 E 11 13 1010.0 - - - - - - - - -
22/10:30am 12.8 E 9 12 1010.4 - - - - - - - - -
22/10:00am 12.5 E 8 9 1010.4 - - - - - - - - -
22/09:30am 12.5 E 7 8 1010.4 - - - - - - - - -
22/09:00am 12.6 SSE 3 5 1010.7 - - - - - - - - -
22/08:30am 12.0 S 4 5 1010.6 - - - - - - - - -
22/08:00am 11.5 S 7 8 1010.6 - - - - - - - - -
22/07:30am 11.4 S 5 6 1010.9 - - - - - - - - -
22/07:00am 11.0 S 5 6 1010.8 - - - - - - - - -
22/06:30am 10.7 S 3 4 1010.8 - - - - - - - - -
22/06:00am 10.5 S 4 5 1010.6 - - - - - - - - -
22/05:30am 10.2 SSW 6 8 1010.0 - - - - - - - - -
22/05:00am 9.6 S 6 7 1010.1 - - - - - - - - -
22/04:30am 9.2 S 5 7 1009.7 - - - - - - - - -
22/04:00am 9.2 SSW 4 6 1009.8 - - - - - - - - -
22/03:30am 9.4 S 5 6 1009.6 - - - - - - - - -
22/03:00am 9.5 S 5 7 1009.5 - - - - - - - - -

Other Formats:

Comma delimited format used in spreadsheet applications
http://www.bom.gov.au/fwo/IDT60701/IDT60701.95963.axf

JavaScript Object Notation format (JSON) in row-major order
http://www.bom.gov.au/fwo/IDT60701/IDT60701.95963.json